PWSweather.com
Personal Weather Stations
Station Observations
KTXDECATUR
Wildwood, Decatur, TX 76234

WildwoodDecatur, TX 76234

Lat: 33.2634, Lon: -97.6651

Elevation: 800

Station Type: Davis Vantage Pro 2

http://weather.wildwoodnaturist.com

Latest ConditionsUpdated 11:20:01 AM CST Sunday, Jan 26, 2020
Currently Today's Max Today's Min Today's Average
Temperature 53.7°F12.1°C 55.8°F13.2°C 47.8°F8.8°C 50.8°F10.4°C
Dew Point 50.5°F10.3°C 52.4°F11.3°C 46.2°F7.9°C 48.7°F9.3°C
Winds 8.1 mph N13.0 kmh N 12.7 mph -20.4 kmh - - 6.1 mph 9.8 kmh
Wind Gusts 9.2 mph14.8 kmh 15.0 mph24.1 kmh - -
Humidity 89% 95% 86% 93%
Pressure 30.01 in1016.3 mb 30.01 in1016.3 mb 29.89 in1012.2 mb -
Hour Temp Dew Point Humidity Winds Wind Gusts Pressure Precip Precip Rate Daily Precip Total
11:20 AM 53.7°F12.1°C 50.5°F10.3°C 89% 8.1 mph N13.0 kmh N 9.2 mph14.8 kmh 30.01 in1016.3 mb - 0.00 in0.0 mm 0.00 in0.0 mm
11:15 AM 52.7°F11.5°C 49.8°F9.9°C 90% 8.1 mph NW13.0 kmh NW 10.4 mph16.7 kmh 30.01 in1016.3 mb - 0.00 in0.0 mm 0.00 in0.0 mm
11:10 AM 52.0°F11.1°C 49.4°F9.7°C 91% 8.1 mph N13.0 kmh N 8.1 mph13.0 kmh 30.01 in1016.3 mb - 0.00 in0.0 mm 0.00 in0.0 mm
11:00 AM 51.3°F10.7°C 49.0°F9.4°C 92% 8.1 mph NW13.0 kmh NW 10.4 mph16.7 kmh 30.01 in1016.3 mb - 0.00 in0.0 mm 0.00 in0.0 mm
10:50 AM 50.5°F10.3°C 48.3°F9.1°C 92% 8.1 mph NNW13.0 kmh NNW 9.2 mph14.8 kmh 30.01 in1016.3 mb - 0.00 in0.0 mm 0.00 in0.0 mm
10:45 AM 50.5°F10.3°C 48.6°F9.2°C 93% 10.4 mph NW16.7 kmh NW 10.4 mph16.7 kmh 30.00 in1015.9 mb - 0.00 in0.0 mm 0.00 in0.0 mm
10:40 AM 50.4°F10.2°C 48.4°F9.1°C 93% 8.1 mph NNW13.0 kmh NNW 9.2 mph14.8 kmh 30.01 in1016.3 mb - 0.00 in0.0 mm 0.00 in0.0 mm
10:30 AM 50.0°F10.0°C 48.0°F8.9°C 93% 5.8 mph NNW9.3 kmh NNW 8.1 mph13.0 kmh 30.00 in1015.9 mb - 0.00 in0.0 mm 0.00 in0.0 mm
10:20 AM 49.6°F9.8°C 47.9°F8.8°C 94% 4.6 mph NW7.4 kmh NW 8.1 mph13.0 kmh 30.00 in1015.9 mb - 0.00 in0.0 mm 0.00 in0.0 mm
10:15 AM 49.3°F9.6°C 48.0°F8.9°C 95% 4.6 mph NNW7.4 kmh NNW 8.1 mph13.0 kmh 30.00 in1015.9 mb - 0.00 in0.0 mm 0.00 in0.0 mm
10:10 AM 48.8°F9.3°C 47.1°F8.4°C 94% 6.9 mph NW11.1 kmh NW 8.1 mph13.0 kmh 30.00 in1015.9 mb - 0.00 in0.0 mm 0.00 in0.0 mm
10:00 AM 48.9°F9.4°C 47.5°F8.6°C 95% 8.1 mph NW13.0 kmh NW 9.2 mph14.8 kmh 30.00 in1015.9 mb - 0.00 in0.0 mm 0.00 in0.0 mm
09:50 AM 48.6°F9.2°C 47.2°F8.4°C 95% 6.9 mph NW11.1 kmh NW 8.1 mph13.0 kmh 30.00 in1015.9 mb - 0.00 in0.0 mm 0.00 in0.0 mm
09:45 AM 48.4°F9.1°C 47.0°F8.3°C 95% 8.1 mph NNW13.0 kmh NNW 10.4 mph16.7 kmh 30.00 in1015.9 mb - 0.00 in0.0 mm 0.00 in0.0 mm
09:40 AM 48.5°F9.2°C 47.1°F8.4°C 95% 9.2 mph NNW14.8 kmh NNW 11.5 mph18.5 kmh 30.00 in1015.9 mb - 0.00 in0.0 mm 0.00 in0.0 mm
09:30 AM 47.9°F8.8°C 46.5°F8.1°C 95% 5.8 mph NNW9.3 kmh NNW 6.9 mph11.1 kmh 30.00 in1015.9 mb - 0.00 in0.0 mm 0.00 in0.0 mm
09:20 AM 47.8°F8.8°C 46.5°F8.1°C 95% 9.2 mph NNW14.8 kmh NNW 12.7 mph20.4 kmh 30.00 in1015.9 mb - 0.00 in0.0 mm 0.00 in0.0 mm
09:15 AM 47.8°F8.8°C 46.4°F8.0°C 95% 4.6 mph NNW7.4 kmh NNW 6.9 mph11.1 kmh 30.00 in1015.9 mb - 0.00 in0.0 mm 0.00 in0.0 mm
09:10 AM 47.8°F8.8°C 46.4°F8.0°C 95% 6.9 mph NNW11.1 kmh NNW 8.1 mph13.0 kmh 30.00 in1015.9 mb - 0.00 in0.0 mm 0.00 in0.0 mm
09:00 AM 47.8°F8.8°C 46.4°F8.0°C 95% 8.1 mph NW13.0 kmh NW 9.2 mph14.8 kmh 30.00 in1015.9 mb - 0.00 in0.0 mm 0.00 in0.0 mm
08:50 AM 47.8°F8.8°C 46.4°F8.0°C 95% 8.1 mph NNW13.0 kmh NNW 11.5 mph18.5 kmh 30.00 in1015.9 mb - 0.00 in0.0 mm 0.00 in0.0 mm
08:45 AM 47.8°F8.8°C 46.2°F7.9°C 94% 10.4 mph NW16.7 kmh NW 12.7 mph20.4 kmh 30.00 in1015.9 mb - 0.00 in0.0 mm 0.00 in0.0 mm
08:40 AM 47.8°F8.8°C 46.2°F7.9°C 94% 6.9 mph NW11.1 kmh NW 10.4 mph16.7 kmh 30.00 in1015.9 mb - 0.00 in0.0 mm 0.00 in0.0 mm
08:30 AM 48.0°F8.9°C 46.6°F8.1°C 95% 6.9 mph NW11.1 kmh NW 8.1 mph13.0 kmh 30.00 in1015.9 mb - 0.00 in0.0 mm 0.00 in0.0 mm
08:20 AM 48.1°F8.9°C 46.5°F8.1°C 94% 8.1 mph NW13.0 kmh NW 8.1 mph13.0 kmh 30.00 in1015.9 mb - 0.00 in0.0 mm 0.00 in0.0 mm
08:15 AM 48.1°F8.9°C 46.5°F8.1°C 94% 9.2 mph NW14.8 kmh NW 12.7 mph20.4 kmh 29.99 in1015.6 mb - 0.00 in0.0 mm 0.00 in0.0 mm
08:10 AM 48.2°F9.0°C 46.6°F8.1°C 94% 8.1 mph NW13.0 kmh NW 10.4 mph16.7 kmh 29.99 in1015.6 mb - 0.00 in0.0 mm 0.00 in0.0 mm
08:00 AM 48.4°F9.1°C 46.7°F8.2°C 94% 5.8 mph NW9.3 kmh NW 8.1 mph13.0 kmh 29.98 in1015.2 mb - 0.00 in0.0 mm 0.00 in0.0 mm
07:50 AM 48.5°F9.2°C 46.8°F8.2°C 94% 6.9 mph NW11.1 kmh NW 8.1 mph13.0 kmh 29.97 in1014.9 mb - 0.00 in0.0 mm 0.00 in0.0 mm
07:45 AM 48.6°F9.2°C 46.9°F8.3°C 94% 5.8 mph NW9.3 kmh NW 6.9 mph11.1 kmh 29.96 in1014.6 mb - 0.00 in0.0 mm 0.00 in0.0 mm
07:40 AM 48.7°F9.3°C 46.8°F8.2°C 93% 5.8 mph NW9.3 kmh NW 6.9 mph11.1 kmh 29.96 in1014.6 mb - 0.00 in0.0 mm 0.00 in0.0 mm
07:30 AM 49.1°F9.5°C 47.4°F8.6°C 94% 8.1 mph NW13.0 kmh NW 8.1 mph13.0 kmh 29.96 in1014.6 mb - 0.00 in0.0 mm 0.00 in0.0 mm
07:20 AM 49.3°F9.6°C 47.4°F8.6°C 93% 8.1 mph NW13.0 kmh NW 9.2 mph14.8 kmh 29.95 in1014.2 mb - 0.00 in0.0 mm 0.00 in0.0 mm
07:15 AM 49.4°F9.7°C 47.4°F8.6°C 93% 9.2 mph NW14.8 kmh NW 10.4 mph16.7 kmh 29.94 in1013.9 mb - 0.00 in0.0 mm 0.00 in0.0 mm
07:10 AM 49.4°F9.7°C 47.5°F8.6°C 93% 6.9 mph NW11.1 kmh NW 10.4 mph16.7 kmh 29.94 in1013.9 mb - 0.00 in0.0 mm 0.00 in0.0 mm
07:00 AM 49.4°F9.7°C 47.5°F8.6°C 93% 4.6 mph NW7.4 kmh NW 8.1 mph13.0 kmh 29.94 in1013.9 mb - 0.00 in0.0 mm 0.00 in0.0 mm
06:50 AM 49.5°F9.7°C 47.8°F8.8°C 94% 6.9 mph NW11.1 kmh NW 8.1 mph13.0 kmh 29.93 in1013.5 mb - 0.00 in0.0 mm 0.00 in0.0 mm
06:45 AM 49.5°F9.7°C 47.9°F8.8°C 94% 4.6 mph NNW7.4 kmh NNW 5.8 mph9.3 kmh 29.92 in1013.2 mb - 0.00 in0.0 mm 0.00 in0.0 mm
06:40 AM 49.6°F9.8°C 47.6°F8.7°C 93% 3.5 mph NNW5.6 kmh NNW 5.8 mph9.3 kmh 29.92 in1013.2 mb - 0.00 in0.0 mm 0.00 in0.0 mm
06:30 AM 49.6°F9.8°C 48.0°F8.9°C 94% 5.8 mph NW9.3 kmh NW 6.9 mph11.1 kmh 29.91 in1012.9 mb - 0.00 in0.0 mm 0.00 in0.0 mm
06:20 AM 49.6°F9.8°C 47.7°F8.7°C 93% 5.8 mph NW9.3 kmh NW 6.9 mph11.1 kmh 29.92 in1013.2 mb - 0.00 in0.0 mm 0.00 in0.0 mm
06:15 AM 49.6°F9.8°C 47.7°F8.7°C 93% 5.8 mph WNW9.3 kmh WNW 9.2 mph14.8 kmh 29.92 in1013.2 mb - 0.00 in0.0 mm 0.00 in0.0 mm
06:10 AM 49.6°F9.8°C 47.7°F8.7°C 93% 4.6 mph WSW7.4 kmh WSW 4.6 mph7.4 kmh 29.92 in1013.2 mb - 0.00 in0.0 mm 0.00 in0.0 mm
06:00 AM 49.7°F9.8°C 48.0°F8.9°C 94% 6.9 mph NW11.1 kmh NW 12.7 mph20.4 kmh 29.91 in1012.9 mb - 0.00 in0.0 mm 0.00 in0.0 mm
05:50 AM 49.7°F9.8°C 48.1°F8.9°C 94% 10.4 mph NW16.7 kmh NW 9.2 mph14.8 kmh 29.90 in1012.5 mb - 0.00 in0.0 mm 0.00 in0.0 mm
05:45 AM 49.7°F9.8°C 48.1°F8.9°C 94% 12.7 mph NW20.4 kmh NW 15.0 mph24.1 kmh 29.90 in1012.5 mb - 0.00 in0.0 mm 0.00 in0.0 mm
05:40 AM 49.7°F9.8°C 48.1°F8.9°C 94% 6.9 mph NW11.1 kmh NW 9.2 mph14.8 kmh 29.90 in1012.5 mb - 0.00 in0.0 mm 0.00 in0.0 mm
05:30 AM 49.7°F9.8°C 48.0°F8.9°C 94% 9.2 mph NW14.8 kmh NW 10.4 mph16.7 kmh 29.91 in1012.9 mb - 0.00 in0.0 mm 0.00 in0.0 mm
05:20 AM 49.7°F9.8°C 48.0°F8.9°C 94% 5.8 mph WNW9.3 kmh WNW 6.9 mph11.1 kmh 29.90 in1012.5 mb - 0.00 in0.0 mm 0.00 in0.0 mm
05:15 AM 49.7°F9.8°C 48.0°F8.9°C 94% 5.8 mph NW9.3 kmh NW 10.4 mph16.7 kmh 29.90 in1012.5 mb - 0.00 in0.0 mm 0.00 in0.0 mm
05:10 AM 49.7°F9.8°C 48.0°F8.9°C 94% 8.1 mph NW13.0 kmh NW 10.4 mph16.7 kmh 29.90 in1012.5 mb - 0.00 in0.0 mm 0.00 in0.0 mm
05:00 AM 49.6°F9.8°C 48.2°F9.0°C 95% 8.1 mph WNW13.0 kmh WNW 9.2 mph14.8 kmh 29.90 in1012.5 mb - 0.00 in0.0 mm 0.00 in0.0 mm
04:50 AM 49.4°F9.7°C 48.0°F8.9°C 95% 4.6 mph W7.4 kmh W 5.8 mph9.3 kmh 29.90 in1012.5 mb - 0.00 in0.0 mm 0.00 in0.0 mm
04:45 AM 49.2°F9.6°C 47.8°F8.8°C 95% 5.8 mph W9.3 kmh W 6.9 mph11.1 kmh 29.90 in1012.5 mb - 0.00 in0.0 mm 0.00 in0.0 mm
04:40 AM 49.0°F9.4°C 47.6°F8.7°C 95% 3.5 mph W5.6 kmh W 4.6 mph7.4 kmh 29.90 in1012.5 mb - 0.00 in0.0 mm 0.00 in0.0 mm
04:30 AM 48.1°F8.9°C 46.5°F8.1°C 94% 3.5 mph WSW5.6 kmh WSW 3.5 mph5.6 kmh 29.90 in1012.5 mb - 0.00 in0.0 mm 0.00 in0.0 mm
04:20 AM 48.7°F9.3°C 47.0°F8.3°C 94% 2.3 mph W3.7 kmh W 3.5 mph5.6 kmh 29.90 in1012.5 mb - 0.00 in0.0 mm 0.00 in0.0 mm
04:15 AM 48.6°F9.2°C 47.0°F8.3°C 94% 3.5 mph W5.6 kmh W 3.5 mph5.6 kmh 29.90 in1012.5 mb - 0.00 in0.0 mm 0.00 in0.0 mm
04:10 AM 49.2°F9.6°C 47.6°F8.7°C 94% 2.3 mph W3.7 kmh W 4.6 mph7.4 kmh 29.90 in1012.5 mb - 0.00 in0.0 mm 0.00 in0.0 mm
04:00 AM 50.3°F10.2°C 48.6°F9.2°C 94% 1.2 mph W1.9 kmh W 3.5 mph5.6 kmh 29.90 in1012.5 mb - 0.00 in0.0 mm 0.00 in0.0 mm
03:50 AM 50.7°F10.4°C 48.8°F9.3°C 93% 3.5 mph WSW5.6 kmh WSW 5.8 mph9.3 kmh 29.90 in1012.5 mb - 0.00 in0.0 mm 0.00 in0.0 mm
03:45 AM 51.1°F10.6°C 49.5°F9.7°C 94% 3.5 mph WSW5.6 kmh WSW 4.6 mph7.4 kmh 29.90 in1012.5 mb - 0.00 in0.0 mm 0.00 in0.0 mm
03:30 AM 51.7°F10.9°C 50.0°F10.0°C 94% 4.6 mph WSW7.4 kmh WSW 6.9 mph11.1 kmh 29.90 in1012.5 mb - 0.00 in0.0 mm 0.00 in0.0 mm
03:20 AM 51.7°F10.9°C 49.8°F9.9°C 93% 4.6 mph SW7.4 kmh SW 6.9 mph11.1 kmh 29.90 in1012.5 mb - 0.00 in0.0 mm 0.00 in0.0 mm
03:10 AM 52.1°F11.2°C 50.4°F10.2°C 94% 3.5 mph SW5.6 kmh SW 5.8 mph9.3 kmh 29.89 in1012.2 mb - 0.00 in0.0 mm 0.00 in0.0 mm
03:00 AM 52.0°F11.1°C 50.1°F10.1°C 93% 4.6 mph SW7.4 kmh SW 5.8 mph9.3 kmh 29.90 in1012.5 mb - 0.00 in0.0 mm 0.00 in0.0 mm
02:50 AM 52.1°F11.2°C 50.1°F10.1°C 93% 3.5 mph SW5.6 kmh SW 4.6 mph7.4 kmh 29.90 in1012.5 mb - 0.00 in0.0 mm 0.00 in0.0 mm
02:45 AM 52.1°F11.2°C 50.2°F10.1°C 93% 4.6 mph SW7.4 kmh SW 6.9 mph11.1 kmh 29.90 in1012.5 mb - 0.00 in0.0 mm 0.00 in0.0 mm
02:40 AM 52.0°F11.1°C 49.8°F9.9°C 92% 3.5 mph SW5.6 kmh SW 5.8 mph9.3 kmh 29.90 in1012.5 mb - 0.00 in0.0 mm 0.00 in0.0 mm
02:30 AM 52.7°F11.5°C 50.4°F10.2°C 92% 3.5 mph SW5.6 kmh SW 4.6 mph7.4 kmh 29.90 in1012.5 mb - 0.00 in0.0 mm 0.00 in0.0 mm
02:20 AM 53.3°F11.8°C 50.7°F10.4°C 91% 3.5 mph SSW5.6 kmh SSW 4.6 mph7.4 kmh 29.90 in1012.5 mb - 0.00 in0.0 mm 0.00 in0.0 mm
02:15 AM 53.4°F11.9°C 50.8°F10.4°C 91% 4.6 mph SW7.4 kmh SW 6.9 mph11.1 kmh 29.90 in1012.5 mb - 0.00 in0.0 mm 0.00 in0.0 mm
02:10 AM 53.7°F12.1°C 51.1°F10.6°C 91% 3.5 mph SW5.6 kmh SW 4.6 mph7.4 kmh 29.90 in1012.5 mb - 0.00 in0.0 mm 0.00 in0.0 mm
02:00 AM 53.8°F12.1°C 51.2°F10.7°C 91% 4.6 mph S7.4 kmh S 5.8 mph9.3 kmh 29.90 in1012.5 mb - 0.00 in0.0 mm 0.00 in0.0 mm
01:50 AM 54.3°F12.4°C 51.4°F10.8°C 90% 4.6 mph SSW7.4 kmh SSW 6.9 mph11.1 kmh 29.89 in1012.2 mb - 0.00 in0.0 mm 0.00 in0.0 mm
01:45 AM 54.5°F12.5°C 51.6°F10.9°C 90% 4.6 mph SSW7.4 kmh SSW 6.9 mph11.1 kmh 29.89 in1012.2 mb - 0.00 in0.0 mm 0.00 in0.0 mm
01:40 AM 54.8°F12.7°C 51.6°F10.9°C 89% 6.9 mph SSW11.1 kmh SSW 8.1 mph13.0 kmh 29.89 in1012.2 mb - 0.00 in0.0 mm 0.00 in0.0 mm
01:30 AM 55.0°F12.8°C 51.8°F11.0°C 89% 5.8 mph S9.3 kmh S 9.2 mph14.8 kmh 29.89 in1012.2 mb - 0.00 in0.0 mm 0.00 in0.0 mm
01:20 AM 55.6°F13.1°C 52.4°F11.3°C 89% 6.9 mph SSW11.1 kmh SSW 12.7 mph20.4 kmh 29.89 in1012.2 mb - 0.00 in0.0 mm 0.00 in0.0 mm
01:15 AM 55.6°F13.1°C 52.4°F11.3°C 89% 4.6 mph S7.4 kmh S 8.1 mph13.0 kmh 29.89 in1012.2 mb - 0.00 in0.0 mm 0.00 in0.0 mm
01:10 AM 55.6°F13.1°C 52.4°F11.3°C 89% 6.9 mph S11.1 kmh S 10.4 mph16.7 kmh 29.89 in1012.2 mb - 0.00 in0.0 mm 0.00 in0.0 mm
01:00 AM 55.7°F13.2°C 52.2°F11.2°C 88% 4.6 mph SSW7.4 kmh SSW 8.1 mph13.0 kmh 29.90 in1012.5 mb - 0.00 in0.0 mm 0.00 in0.0 mm
12:50 AM 55.6°F13.1°C 52.1°F11.2°C 88% 4.6 mph S7.4 kmh S 6.9 mph11.1 kmh 29.90 in1012.5 mb - 0.00 in0.0 mm 0.00 in0.0 mm
12:45 AM 55.5°F13.1°C 52.0°F11.1°C 88% 6.9 mph S11.1 kmh S 8.1 mph13.0 kmh 29.90 in1012.5 mb - 0.00 in0.0 mm 0.00 in0.0 mm
12:40 AM 55.4°F13.0°C 51.9°F11.1°C 88% 5.8 mph S9.3 kmh S 5.8 mph9.3 kmh 29.90 in1012.5 mb - 0.00 in0.0 mm 0.00 in0.0 mm
12:30 AM 55.6°F13.1°C 51.8°F11.0°C 87% 4.6 mph S7.4 kmh S 8.1 mph13.0 kmh 29.90 in1012.5 mb - 0.00 in0.0 mm 0.00 in0.0 mm
12:20 AM 55.7°F13.2°C 51.9°F11.1°C 87% 5.8 mph S9.3 kmh S 10.4 mph16.7 kmh 29.91 in1012.9 mb - 0.00 in0.0 mm 0.00 in0.0 mm
12:15 AM 55.7°F13.2°C 51.6°F10.9°C 86% 5.8 mph S9.3 kmh S 8.1 mph13.0 kmh 29.90 in1012.5 mb - 0.00 in0.0 mm 0.00 in0.0 mm
12:10 AM 55.8°F13.2°C 51.7°F10.9°C 86% 9.2 mph S14.8 kmh S 9.2 mph14.8 kmh 29.90 in1012.5 mb - 0.00 in0.0 mm 0.00 in0.0 mm
12:00 AM 55.8°F13.2°C 51.7°F10.9°C 86% 5.8 mph S9.3 kmh S 9.2 mph14.8 kmh 29.90 in1012.5 mb - 0.00 in0.0 mm 0.00 in0.0 mm